createdAt,value
2022-11-21T00:00:08.951Z,3
2022-11-21T00:01:12.193Z,3
2022-11-21T00:02:14.951Z,2
2022-11-21T00:03:17.703Z,3
2022-11-21T00:04:20.365Z,2
2022-11-21T00:05:23.002Z,2
2022-11-21T00:06:25.668Z,3
2022-11-21T00:07:28.384Z,3
2022-11-21T00:08:31.132Z,4
2022-11-21T00:09:33.823Z,3
2022-11-21T00:10:36.437Z,3
2022-11-21T00:11:39.091Z,3
2022-11-21T00:12:52.716Z,3
2022-11-21T00:13:54.957Z,2
2022-11-21T00:14:57.586Z,3
2022-11-21T00:16:00.210Z,2
2022-11-21T00:17:02.807Z,3
2022-11-21T00:18:05.420Z,1
2022-11-21T00:19:08.067Z,2
2022-11-21T00:20:10.754Z,2
2022-11-21T00:21:13.405Z,3
2022-11-21T00:22:16.045Z,2
2022-11-21T00:23:18.689Z,2
2022-11-21T00:24:21.348Z,3
2022-11-21T00:25:23.968Z,3
2022-11-21T00:26:26.605Z,3
2022-11-21T00:27:29.240Z,3
2022-11-21T00:28:31.937Z,2
2022-11-21T00:29:34.576Z,3
2022-11-21T00:30:37.484Z,3
2022-11-21T00:31:40.712Z,3
2022-11-21T00:32:43.302Z,2
2022-11-21T00:33:45.911Z,2
2022-11-21T00:34:48.569Z,3
2022-11-21T00:35:51.252Z,1
2022-11-21T00:36:54.057Z,3
2022-11-21T00:37:56.923Z,2
2022-11-21T00:38:59.565Z,2
2022-11-21T00:40:02.178Z,3
2022-11-21T00:41:04.877Z,3
2022-11-21T00:42:07.486Z,3
2022-11-21T00:43:10.180Z,3
2022-11-21T00:44:12.828Z,3
2022-11-21T00:45:24.223Z,3
2022-11-21T00:46:27.104Z,2
2022-11-21T00:47:29.764Z,3
2022-11-21T00:48:32.434Z,3
2022-11-21T00:49:35.133Z,3
2022-11-21T00:50:37.835Z,2
2022-11-21T00:51:40.522Z,3
2022-11-21T00:52:43.129Z,3
2022-11-21T00:53:45.745Z,2
2022-11-21T00:54:48.408Z,2
2022-11-21T00:55:51.038Z,2
2022-11-21T00:56:53.659Z,3
2022-11-21T00:57:56.259Z,2
2022-11-21T00:58:58.839Z,3
2022-11-21T01:00:01.497Z,3
2022-11-21T01:01:04.247Z,3
2022-11-21T01:02:07.694Z,3
2022-11-21T01:03:10.297Z,3
2022-11-21T01:04:13.163Z,3
2022-11-21T01:05:15.745Z,3
2022-11-21T01:06:18.404Z,3
2022-11-21T01:07:21.155Z,2
2022-11-21T01:08:23.895Z,3
2022-11-21T01:09:26.568Z,3
2022-11-21T01:10:29.178Z,3
2022-11-21T01:11:31.849Z,3
2022-11-21T01:12:34.562Z,3
2022-11-21T01:13:37.287Z,3
2022-11-21T01:14:39.939Z,3
2022-11-21T01:15:42.615Z,2
2022-11-21T01:16:45.263Z,3
2022-11-21T01:17:47.881Z,3
2022-11-21T01:18:50.473Z,3
2022-11-21T01:19:53.111Z,3
2022-11-21T01:20:55.787Z,3
2022-11-21T01:21:58.410Z,3
2022-11-21T01:23:01.014Z,3
2022-11-21T01:24:03.655Z,3
2022-11-21T01:25:06.282Z,3
2022-11-21T01:26:08.909Z,3
2022-11-21T01:27:11.557Z,3
2022-11-21T01:28:14.234Z,3
2022-11-21T01:29:16.916Z,3
2022-11-21T01:30:19.584Z,3
2022-11-21T01:31:22.231Z,3
2022-11-21T01:32:24.880Z,3
2022-11-21T01:33:27.507Z,3
2022-11-21T01:34:30.204Z,4
2022-11-21T01:35:33.770Z,3
2022-11-21T01:36:36.389Z,3
2022-11-21T01:37:39.049Z,3
2022-11-21T01:38:41.703Z,4
2022-11-21T01:39:44.321Z,3
2022-11-21T01:40:46.939Z,4
2022-11-21T01:41:49.596Z,3
2022-11-21T01:42:52.226Z,3
2022-11-21T01:43:54.946Z,3
2022-11-21T01:44:57.864Z,4
2022-11-21T01:46:00.496Z,3
2022-11-21T01:47:03.106Z,3
2022-11-21T01:48:05.701Z,3
2022-11-21T01:49:08.330Z,3
2022-11-21T01:50:13.265Z,4
2022-11-21T01:51:15.687Z,3
2022-11-21T01:52:18.333Z,3
2022-11-21T01:53:20.974Z,3
2022-11-21T01:54:23.611Z,3
2022-11-21T01:55:26.262Z,3
2022-11-21T01:56:28.872Z,3
2022-11-21T01:57:31.699Z,4
2022-11-21T01:58:34.337Z,3
2022-11-21T01:59:37.048Z,3
2022-11-21T02:00:39.889Z,3
2022-11-21T02:01:42.701Z,3
2022-11-21T02:02:45.346Z,3
2022-11-21T02:03:47.966Z,2
2022-11-21T02:04:50.578Z,2
2022-11-21T02:05:53.204Z,3
2022-11-21T02:06:56.049Z,2
2022-11-21T02:07:58.680Z,3
2022-11-21T02:09:01.289Z,3
2022-11-21T02:10:03.889Z,3
2022-11-21T02:11:06.536Z,3
2022-11-21T02:12:09.196Z,1
2022-11-21T02:13:11.889Z,3
2022-11-21T02:14:14.753Z,2
2022-11-21T02:15:17.470Z,3
2022-11-21T02:16:20.137Z,3
2022-11-21T02:17:22.745Z,2
2022-11-21T02:18:25.418Z,3
2022-11-21T02:19:28.030Z,3
2022-11-21T02:20:30.660Z,2
2022-11-21T02:21:33.319Z,2
2022-11-21T02:22:35.946Z,3
2022-11-21T02:23:38.575Z,2
2022-11-21T02:24:41.211Z,2
2022-11-21T02:25:43.853Z,3
2022-11-21T02:26:46.462Z,3
2022-11-21T02:27:49.033Z,3
2022-11-21T02:28:51.688Z,3
2022-11-21T02:29:54.259Z,3
2022-11-21T02:30:56.983Z,3
2022-11-21T02:31:59.662Z,2
2022-11-21T02:33:02.308Z,3
2022-11-21T02:34:04.939Z,3
2022-11-21T02:35:07.533Z,3
2022-11-21T02:36:10.176Z,4
2022-11-21T02:37:12.784Z,3
2022-11-21T02:38:15.429Z,3
2022-11-21T02:39:18.073Z,3
2022-11-21T02:40:20.726Z,3
2022-11-21T02:41:23.469Z,3
2022-11-21T02:42:26.329Z,3
2022-11-21T02:43:28.964Z,3
2022-11-21T02:44:31.759Z,4
2022-11-21T02:45:34.388Z,3
2022-11-21T02:46:37.092Z,3
2022-11-21T02:47:39.983Z,3
2022-11-21T02:48:42.592Z,3
2022-11-21T02:49:45.206Z,3
2022-11-21T02:50:48.054Z,3
2022-11-21T02:51:50.704Z,3
2022-11-21T02:52:53.337Z,3
2022-11-21T02:53:56.328Z,3
2022-11-21T02:54:59.067Z,3
2022-11-21T02:56:01.917Z,3
2022-11-21T02:57:05.314Z,3
2022-11-21T02:58:07.960Z,2
2022-11-21T02:59:10.634Z,2
2022-11-21T03:00:13.254Z,3
2022-11-21T03:01:15.995Z,3
2022-11-21T03:02:18.861Z,3
2022-11-21T03:03:23.038Z,3
2022-11-21T03:04:26.288Z,3
2022-11-21T03:05:29.835Z,3
2022-11-21T03:06:32.543Z,3
2022-11-21T03:07:35.246Z,3
2022-11-21T03:08:37.979Z,3
2022-11-21T03:09:40.668Z,3
2022-11-21T03:10:43.293Z,3
2022-11-21T03:11:45.923Z,3
2022-11-21T03:12:48.541Z,3
2022-11-21T03:13:51.239Z,3
2022-11-21T03:14:53.898Z,3
2022-11-21T03:15:56.517Z,3
2022-11-21T03:16:59.118Z,3
2022-11-21T03:18:01.865Z,3
2022-11-21T03:19:04.532Z,3
2022-11-21T03:20:07.178Z,4
2022-11-21T03:21:13.303Z,4
2022-11-21T03:22:15.713Z,4
2022-11-21T03:23:18.342Z,4
2022-11-21T03:24:20.986Z,3
2022-11-21T03:25:23.591Z,3
2022-11-21T03:26:26.217Z,3
2022-11-21T03:27:28.821Z,3
2022-11-21T03:28:31.503Z,3
2022-11-21T03:29:34.132Z,3
2022-11-21T03:30:36.729Z,3
2022-11-21T03:31:39.361Z,3
2022-11-21T03:32:41.980Z,2
2022-11-21T03:33:44.618Z,3
2022-11-21T03:34:47.324Z,3
2022-11-21T03:35:50.558Z,3
2022-11-21T03:36:53.153Z,3
2022-11-21T03:37:55.805Z,3
2022-11-21T03:38:58.459Z,3
2022-11-21T03:40:01.101Z,3
2022-11-21T03:41:03.737Z,2
2022-11-21T03:42:06.382Z,3
2022-11-21T03:43:08.991Z,3
2022-11-21T03:44:11.837Z,3
2022-11-21T03:45:14.465Z,3
2022-11-21T03:46:17.127Z,3
2022-11-21T03:47:19.734Z,3
2022-11-21T03:48:22.380Z,3
2022-11-21T03:49:25.074Z,3
2022-11-21T03:50:27.774Z,3
2022-11-21T03:51:30.382Z,3
2022-11-21T03:52:33.053Z,3
2022-11-21T03:53:35.604Z,3
2022-11-21T03:54:38.261Z,3
2022-11-21T03:55:40.877Z,3
2022-11-21T03:56:43.483Z,3
2022-11-21T03:57:46.101Z,3
2022-11-21T03:58:48.765Z,3
2022-11-21T03:59:51.377Z,3
2022-11-21T04:00:54.037Z,3
2022-11-21T04:01:56.777Z,4
2022-11-21T04:02:59.559Z,3
2022-11-21T04:04:02.169Z,2
2022-11-21T04:05:04.877Z,3
2022-11-21T04:06:07.551Z,3
2022-11-21T04:07:10.286Z,3
2022-11-21T04:08:12.992Z,3
2022-11-21T04:09:15.636Z,4
2022-11-21T04:10:18.294Z,3
2022-11-21T04:11:20.970Z,3
2022-11-21T04:12:23.594Z,3
2022-11-21T04:13:26.231Z,3
2022-11-21T04:14:29.459Z,2
2022-11-21T04:15:33.048Z,3
2022-11-21T04:16:35.692Z,3
2022-11-21T04:17:38.362Z,3
2022-11-21T04:18:41.019Z,3
2022-11-21T04:19:43.665Z,4
2022-11-21T04:20:46.362Z,4
2022-11-21T04:21:49.015Z,4
2022-11-21T04:22:51.680Z,4
2022-11-21T04:23:54.348Z,3
2022-11-21T04:24:56.991Z,3
2022-11-21T04:25:59.628Z,3
2022-11-21T04:27:02.260Z,4
2022-11-21T04:28:04.873Z,3
2022-11-21T04:29:07.522Z,3
2022-11-21T04:30:10.153Z,3
2022-11-21T04:31:12.801Z,3
2022-11-21T04:32:15.461Z,3
2022-11-21T04:33:18.070Z,3
2022-11-21T04:34:20.688Z,3
2022-11-21T04:35:23.337Z,3
2022-11-21T04:36:26.177Z,3
2022-11-21T04:37:28.996Z,3
2022-11-21T04:38:31.588Z,3
2022-11-21T04:39:34.225Z,4
2022-11-21T04:40:36.905Z,4
2022-11-21T04:41:39.517Z,4
2022-11-21T04:42:42.185Z,3
2022-11-21T04:43:44.820Z,3
2022-11-21T04:44:47.432Z,2
2022-11-21T04:45:50.110Z,3
2022-11-21T04:46:52.730Z,3
2022-11-21T04:47:55.344Z,3
2022-11-21T04:48:57.978Z,3
2022-11-21T04:50:00.618Z,3
2022-11-21T04:51:03.431Z,3
2022-11-21T04:52:06.077Z,3
2022-11-21T04:53:08.767Z,3
2022-11-21T04:54:11.370Z,4
2022-11-21T04:55:14.003Z,3
2022-11-21T04:56:16.969Z,3
2022-11-21T04:57:19.583Z,3
2022-11-21T04:58:22.223Z,3
2022-11-21T04:59:24.867Z,3
2022-11-21T05:00:27.529Z,3
2022-11-21T05:01:30.304Z,3
2022-11-21T05:02:33.044Z,3
2022-11-21T05:03:35.655Z,2
2022-11-21T05:04:38.293Z,3
2022-11-21T05:05:40.904Z,3
2022-11-21T05:06:43.620Z,3
2022-11-21T05:07:46.498Z,2
2022-11-21T05:08:54.241Z,3
2022-11-21T05:09:56.677Z,3
2022-11-21T05:10:59.529Z,3
2022-11-21T05:12:02.169Z,3
2022-11-21T05:13:07.587Z,2
2022-11-21T05:14:10.063Z,3
2022-11-21T05:15:12.698Z,3
2022-11-21T05:16:15.315Z,3
2022-11-21T05:17:17.944Z,3
2022-11-21T05:18:20.600Z,3
2022-11-21T05:19:23.221Z,3
2022-11-21T05:20:26.041Z,3
2022-11-21T05:21:28.659Z,3
2022-11-21T05:22:31.317Z,3
2022-11-21T05:23:33.904Z,4
2022-11-21T05:24:36.622Z,4
2022-11-21T05:25:39.229Z,4
2022-11-21T05:26:41.897Z,4
2022-11-21T05:27:44.570Z,3
2022-11-21T05:28:47.191Z,3
2022-11-21T05:29:49.855Z,3
2022-11-21T05:30:52.544Z,2
2022-11-21T05:31:55.148Z,3
2022-11-21T05:32:57.768Z,4
2022-11-21T05:34:00.404Z,3
2022-11-21T05:35:03.064Z,3
2022-11-21T05:36:05.936Z,3
2022-11-21T05:37:08.593Z,3
2022-11-21T05:38:11.275Z,3
2022-11-21T05:39:14.006Z,3
2022-11-21T05:40:16.681Z,3
2022-11-21T05:41:19.376Z,3
2022-11-21T05:42:22.025Z,2
2022-11-21T05:43:24.656Z,3
2022-11-21T05:44:27.808Z,3
2022-11-21T05:45:31.189Z,3
2022-11-21T05:46:33.859Z,3
2022-11-21T05:47:36.450Z,3
2022-11-21T05:48:39.043Z,3
2022-11-21T05:49:41.689Z,3
2022-11-21T05:50:44.392Z,3
2022-11-21T05:51:46.906Z,4
2022-11-21T05:52:49.623Z,4
2022-11-21T05:53:52.260Z,3
2022-11-21T05:54:54.963Z,3
2022-11-21T05:55:57.613Z,3
2022-11-21T05:57:00.270Z,3
2022-11-21T05:58:02.949Z,3
2022-11-21T05:59:05.567Z,3
2022-11-21T06:00:08.192Z,3
2022-11-21T06:01:10.845Z,3
2022-11-21T06:02:14.068Z,3
2022-11-21T06:03:16.774Z,3
2022-11-21T06:04:19.608Z,3
2022-11-21T06:05:22.254Z,2
2022-11-21T06:06:25.240Z,2
2022-11-21T06:07:28.037Z,3
2022-11-21T06:08:30.862Z,3
2022-11-21T06:09:33.675Z,3
2022-11-21T06:10:36.331Z,3
2022-11-21T06:11:39.035Z,3
2022-11-21T06:12:41.696Z,3
2022-11-21T06:13:44.375Z,4
2022-11-21T06:14:47.032Z,3
2022-11-21T06:15:49.682Z,3
2022-11-21T06:16:52.341Z,4
2022-11-21T06:17:55.169Z,3
2022-11-21T06:18:59.133Z,3
2022-11-21T06:20:01.670Z,3
2022-11-21T06:21:04.333Z,3
2022-11-21T06:22:06.934Z,3
2022-11-21T06:23:09.557Z,3
2022-11-21T06:24:12.185Z,3
2022-11-21T06:25:14.824Z,3
2022-11-21T06:26:17.530Z,4
2022-11-21T06:27:20.289Z,3
2022-11-21T06:28:23.514Z,3
2022-11-21T06:29:26.110Z,3
2022-11-21T06:30:29.005Z,3
2022-11-21T06:31:31.624Z,3
2022-11-21T06:32:34.400Z,3
2022-11-21T06:33:37.124Z,4
2022-11-21T06:34:40.165Z,3
2022-11-21T06:35:43.153Z,3
2022-11-21T06:36:45.789Z,3
2022-11-21T06:37:53.758Z,3
2022-11-21T06:38:56.205Z,3
2022-11-21T06:39:58.864Z,3
2022-11-21T06:41:01.503Z,3
2022-11-21T06:42:04.216Z,2
2022-11-21T06:43:06.847Z,2
2022-11-21T06:44:09.510Z,3
2022-11-21T06:45:12.215Z,3
2022-11-21T06:46:14.854Z,3
2022-11-21T06:47:18.079Z,3
2022-11-21T06:48:20.710Z,3
2022-11-21T06:49:23.313Z,3
2022-11-21T06:50:25.962Z,3
2022-11-21T06:51:28.596Z,4
2022-11-21T06:52:31.243Z,3
2022-11-21T06:53:33.868Z,3
2022-11-21T06:54:36.487Z,3
2022-11-21T06:55:39.137Z,3
2022-11-21T06:56:41.805Z,3
2022-11-21T06:57:44.718Z,2
2022-11-21T06:58:47.428Z,4
2022-11-21T06:59:50.096Z,4
2022-11-21T07:00:52.914Z,6
2022-11-21T07:01:55.697Z,4
2022-11-21T07:03:03.617Z,4
2022-11-21T07:04:05.947Z,4
2022-11-21T07:05:08.594Z,3
2022-11-21T07:06:11.219Z,4
2022-11-21T07:07:13.941Z,3
2022-11-21T07:08:16.676Z,4
2022-11-21T07:09:33.580Z,3
2022-11-21T07:10:36.399Z,3
2022-11-21T07:11:38.987Z,2
2022-11-21T07:12:41.640Z,3
2022-11-21T07:13:44.286Z,3
2022-11-21T07:14:46.960Z,5
2022-11-21T07:15:50.238Z,4
2022-11-21T07:16:52.817Z,3
2022-11-21T07:17:55.487Z,3
2022-11-21T07:18:58.129Z,3
2022-11-21T07:20:01.353Z,3
2022-11-21T07:21:04.013Z,4
2022-11-21T07:22:06.641Z,11
2022-11-21T07:23:09.520Z,20
2022-11-21T07:24:12.131Z,21
2022-11-21T07:25:14.714Z,25
2022-11-21T07:26:17.377Z,26
2022-11-21T07:27:20.067Z,42
2022-11-21T07:28:22.698Z,36
2022-11-21T07:29:26.081Z,23
2022-11-21T07:30:29.545Z,19
2022-11-21T07:31:32.202Z,19
2022-11-21T07:32:34.879Z,16
2022-11-21T07:33:37.482Z,11
2022-11-21T07:34:40.138Z,8
2022-11-21T07:35:42.805Z,7
2022-11-21T07:36:45.414Z,7
2022-11-21T07:37:48.003Z,5
2022-11-21T07:38:50.702Z,5
2022-11-21T07:39:53.520Z,4
2022-11-21T07:40:56.594Z,5
2022-11-21T07:41:59.191Z,5
2022-11-21T07:43:09.543Z,7
2022-11-21T07:44:13.372Z,8
2022-11-21T07:45:16.059Z,8
2022-11-21T07:46:18.785Z,7
2022-11-21T07:47:21.416Z,7
2022-11-21T07:48:24.068Z,7
2022-11-21T07:49:27.428Z,9
2022-11-21T07:50:30.981Z,8
2022-11-21T07:51:33.612Z,7
2022-11-21T07:52:37.768Z,5
2022-11-21T07:53:40.218Z,5
2022-11-21T07:54:43.437Z,4
2022-11-21T07:55:46.093Z,4
2022-11-21T07:56:48.757Z,5
2022-11-21T07:57:51.429Z,6
2022-11-21T07:58:54.114Z,7
2022-11-21T07:59:56.795Z,9
2022-11-21T08:00:59.502Z,10
2022-11-21T08:02:02.588Z,11
2022-11-21T08:03:05.390Z,10
2022-11-21T08:04:08.053Z,10
2022-11-21T08:05:10.671Z,11
2022-11-21T08:06:13.777Z,14
2022-11-21T08:07:16.510Z,14
2022-11-21T08:08:19.183Z,13
2022-11-21T08:09:21.788Z,13
2022-11-21T08:10:24.445Z,11
2022-11-21T08:11:27.065Z,10
2022-11-21T08:12:29.666Z,17
2022-11-21T08:13:32.335Z,19
2022-11-21T08:14:34.958Z,18
2022-11-21T08:15:37.634Z,14
2022-11-21T08:16:40.315Z,13
2022-11-21T08:17:43.007Z,16
2022-11-21T08:18:45.665Z,17
2022-11-21T08:19:48.322Z,17
2022-11-21T08:20:50.944Z,16
2022-11-21T08:21:53.631Z,14
2022-11-21T08:22:56.267Z,13
2022-11-21T08:23:58.964Z,8
2022-11-21T08:25:01.756Z,7
2022-11-21T08:26:04.428Z,7
2022-11-21T08:27:07.119Z,8
2022-11-21T08:28:09.780Z,7
2022-11-21T08:29:12.439Z,8
2022-11-21T08:30:15.119Z,8
2022-11-21T08:31:18.017Z,10
2022-11-21T08:32:20.699Z,9
2022-11-21T08:33:23.423Z,11
2022-11-21T08:34:26.131Z,10
2022-11-21T08:35:28.724Z,8
2022-11-21T08:36:31.404Z,8
2022-11-21T08:37:34.083Z,7
2022-11-21T08:38:36.693Z,7
2022-11-21T08:39:39.359Z,7
2022-11-21T08:40:41.987Z,8
2022-11-21T08:41:44.632Z,7
2022-11-21T08:42:47.479Z,6
2022-11-21T08:43:50.197Z,6
2022-11-21T08:44:52.832Z,4
2022-11-21T08:45:55.489Z,4
2022-11-21T08:46:58.128Z,5
2022-11-21T08:48:00.883Z,5
2022-11-21T08:49:03.561Z,7
2022-11-21T08:50:09.435Z,7
2022-11-21T08:51:12.154Z,5
2022-11-21T08:52:15.337Z,5
2022-11-21T08:53:19.442Z,5
2022-11-21T08:54:21.995Z,6
2022-11-21T08:55:24.633Z,7
2022-11-21T08:56:27.289Z,6
2022-11-21T08:57:29.949Z,6
2022-11-21T08:58:32.850Z,5
2022-11-21T08:59:35.502Z,7
2022-11-21T09:00:38.147Z,11
2022-11-21T09:01:40.956Z,11
2022-11-21T09:02:43.814Z,8
2022-11-21T09:03:46.532Z,7
2022-11-21T09:04:49.432Z,7
2022-11-21T09:05:52.093Z,4
2022-11-21T09:06:54.705Z,4
2022-11-21T09:07:57.335Z,4
2022-11-21T09:09:00.001Z,4
2022-11-21T09:10:02.664Z,4
2022-11-21T09:11:05.359Z,4
2022-11-21T09:12:07.999Z,5
2022-11-21T09:13:10.652Z,5
2022-11-21T09:14:13.314Z,7
2022-11-21T09:15:15.916Z,7
2022-11-21T09:16:20.902Z,7
2022-11-21T09:17:23.546Z,10
2022-11-21T09:18:26.329Z,9
2022-11-21T09:19:29.830Z,8
2022-11-21T09:20:33.274Z,7
2022-11-21T09:21:36.116Z,6
2022-11-21T09:22:38.749Z,5
2022-11-21T09:23:41.392Z,5
2022-11-21T09:24:44.047Z,4
2022-11-21T09:25:47.198Z,5
2022-11-21T09:26:49.834Z,4
2022-11-21T09:27:52.467Z,5
2022-11-21T09:28:55.066Z,4
2022-11-21T09:29:57.915Z,4
2022-11-21T09:31:00.543Z,4
2022-11-21T09:32:03.231Z,4
2022-11-21T09:33:05.893Z,7
2022-11-21T09:34:08.530Z,7
2022-11-21T09:35:11.782Z,5
2022-11-21T09:36:14.453Z,6
2022-11-21T09:37:17.150Z,6
2022-11-21T09:38:24.465Z,6
2022-11-21T09:39:27.750Z,4
2022-11-21T09:40:30.935Z,4
2022-11-21T09:41:33.614Z,4
2022-11-21T09:42:36.215Z,4
2022-11-21T09:43:38.873Z,4
2022-11-21T09:44:41.529Z,4
2022-11-21T09:45:44.230Z,5
2022-11-21T09:46:46.960Z,4
2022-11-21T09:47:49.620Z,4
2022-11-21T09:48:54.109Z,4
2022-11-21T09:50:00.350Z,4
2022-11-21T09:51:02.847Z,4
2022-11-21T09:52:05.547Z,6
2022-11-21T09:53:08.212Z,6
2022-11-21T09:54:10.874Z,6
2022-11-21T09:55:13.521Z,4
2022-11-21T09:56:17.409Z,6
2022-11-21T09:57:20.008Z,4
2022-11-21T09:58:22.630Z,5
2022-11-21T09:59:25.503Z,4
2022-11-21T10:00:28.301Z,4
2022-11-21T10:01:32.456Z,4
2022-11-21T10:02:35.285Z,4
2022-11-21T10:03:37.947Z,4
2022-11-21T10:04:40.576Z,4
2022-11-21T10:05:43.192Z,4
2022-11-21T10:06:47.359Z,4
2022-11-21T10:07:50.795Z,5
2022-11-21T10:08:53.681Z,5
2022-11-21T10:09:56.532Z,5
2022-11-21T10:10:59.189Z,10
2022-11-21T10:12:02.076Z,7
2022-11-21T10:13:04.759Z,6
2022-11-21T10:14:07.446Z,6
2022-11-21T10:15:10.143Z,7
2022-11-21T10:16:12.797Z,6
2022-11-21T10:17:15.423Z,5
2022-11-21T10:18:18.052Z,4
2022-11-21T10:19:20.728Z,6
2022-11-21T10:20:23.425Z,4
2022-11-21T10:21:26.121Z,5
2022-11-21T10:22:28.821Z,4
2022-11-21T10:23:31.594Z,4
2022-11-21T10:24:34.337Z,4
2022-11-21T10:25:37.060Z,4
2022-11-21T10:26:39.734Z,4
2022-11-21T10:27:42.419Z,4
2022-11-21T10:28:45.354Z,4
2022-11-21T10:29:48.056Z,10
2022-11-21T10:30:50.792Z,10
2022-11-21T10:31:53.488Z,7
2022-11-21T10:32:56.212Z,6
2022-11-21T10:33:58.905Z,8
2022-11-21T10:35:02.051Z,13
2022-11-21T10:36:05.950Z,14
2022-11-21T10:37:12.056Z,11
2022-11-21T10:38:14.560Z,7
2022-11-21T10:39:17.337Z,6
2022-11-21T10:40:19.990Z,10
2022-11-21T10:41:22.641Z,13
2022-11-21T10:42:25.232Z,11
2022-11-21T10:43:27.815Z,11
2022-11-21T10:44:30.918Z,14
2022-11-21T10:45:33.598Z,13
2022-11-21T10:46:36.206Z,11
2022-11-21T10:47:38.780Z,14
2022-11-21T10:48:41.425Z,10
2022-11-21T10:49:44.066Z,7
2022-11-21T10:50:46.708Z,6
2022-11-21T10:51:49.339Z,4
2022-11-21T10:52:51.949Z,4
2022-11-21T10:53:54.668Z,5
2022-11-21T10:54:57.953Z,7
2022-11-21T10:56:00.581Z,5
2022-11-21T10:57:03.220Z,5
2022-11-21T10:58:05.903Z,5
2022-11-21T10:59:08.528Z,7
2022-11-21T11:00:11.232Z,7
2022-11-21T11:01:14.191Z,6
2022-11-21T11:02:16.976Z,6
2022-11-21T11:03:20.193Z,6
2022-11-21T11:04:28.761Z,6
2022-11-21T11:05:40.930Z,7
2022-11-21T11:06:43.710Z,7
2022-11-21T11:07:46.507Z,7
2022-11-21T11:08:49.403Z,6
2022-11-21T11:09:52.090Z,5
2022-11-21T11:10:54.912Z,5
2022-11-21T11:11:57.586Z,5
2022-11-21T11:13:05.217Z,6
2022-11-21T11:14:19.254Z,5
2022-11-21T11:15:21.828Z,4
2022-11-21T11:16:24.706Z,5
2022-11-21T11:17:27.347Z,5
2022-11-21T11:18:30.011Z,5
2022-11-21T11:19:40.252Z,4
2022-11-21T11:20:42.972Z,6
2022-11-21T11:21:45.864Z,5
2022-11-21T11:22:48.533Z,5
2022-11-21T11:24:01.205Z,5
2022-11-21T11:25:13.513Z,6
2022-11-21T11:26:15.797Z,5
2022-11-21T11:27:18.436Z,7
2022-11-21T11:28:24.608Z,8
2022-11-21T11:29:27.781Z,9
2022-11-21T11:30:31.526Z,7
2022-11-21T11:31:34.128Z,7
2022-11-21T11:32:36.773Z,7
2022-11-21T11:33:39.657Z,6
2022-11-21T11:34:42.506Z,7
2022-11-21T11:35:45.169Z,7
2022-11-21T11:36:47.797Z,7
2022-11-21T11:37:50.434Z,7
2022-11-21T11:38:53.631Z,6
2022-11-21T11:39:56.251Z,7
2022-11-21T11:40:59.884Z,6
2022-11-21T11:42:02.594Z,6
2022-11-21T11:43:05.426Z,7
2022-11-21T11:44:08.094Z,6
2022-11-21T11:45:10.742Z,7
2022-11-21T11:46:13.936Z,6
2022-11-21T11:47:16.697Z,9
2022-11-21T11:48:22.961Z,9
2022-11-21T11:49:25.529Z,11
2022-11-21T11:50:28.172Z,13
2022-11-21T11:51:30.826Z,13
2022-11-21T11:52:33.469Z,10
2022-11-21T11:53:36.131Z,10
2022-11-21T11:54:38.985Z,8
2022-11-21T11:55:41.579Z,7
2022-11-21T11:56:44.300Z,5
2022-11-21T11:57:47.157Z,8
2022-11-21T11:58:49.826Z,9
2022-11-21T11:59:52.480Z,7
2022-11-21T12:00:55.153Z,7
2022-11-21T12:01:58.007Z,8
2022-11-21T12:03:00.758Z,7
2022-11-21T12:04:03.451Z,8
2022-11-21T12:05:06.095Z,9
2022-11-21T12:06:09.788Z,8
2022-11-21T12:08:06.201Z,7
2022-11-21T12:08:42.183Z,4
2022-11-21T12:09:45.538Z,4
2022-11-21T12:10:52.662Z,4
2022-11-21T12:11:55.138Z,5
2022-11-21T12:12:57.874Z,4
2022-11-21T12:14:00.731Z,4
2022-11-21T12:15:03.371Z,4
2022-11-21T12:16:13.570Z,4
2022-11-21T12:17:18.151Z,4
2022-11-21T12:18:20.688Z,4
2022-11-21T12:19:23.556Z,4
2022-11-21T12:20:26.212Z,5
2022-11-21T12:21:28.827Z,4
2022-11-21T12:22:31.459Z,4
2022-11-21T12:23:34.133Z,4
2022-11-21T12:24:43.298Z,4
2022-11-21T12:25:47.515Z,5
2022-11-21T12:26:50.032Z,6
2022-11-21T12:27:52.750Z,6
2022-11-21T12:28:55.519Z,4
2022-11-21T12:29:58.399Z,4
2022-11-21T12:31:01.071Z,4
2022-11-21T12:32:03.700Z,4
2022-11-21T12:33:09.485Z,4
2022-11-21T12:34:11.916Z,4
2022-11-21T12:35:14.580Z,4
2022-11-21T12:36:19.072Z,4
2022-11-21T12:37:21.638Z,5
2022-11-21T12:38:24.256Z,5
2022-11-21T12:39:27.589Z,6
2022-11-21T12:40:30.791Z,4
2022-11-21T12:41:33.525Z,4
2022-11-21T12:42:36.132Z,4
2022-11-21T12:43:38.868Z,4
2022-11-21T12:44:41.494Z,4
2022-11-21T12:45:44.167Z,4
2022-11-21T12:46:47.251Z,4
2022-11-21T12:47:49.883Z,4
2022-11-21T12:48:52.584Z,4
2022-11-21T12:49:56.524Z,4
2022-11-21T12:50:59.275Z,5
2022-11-21T12:52:01.912Z,4
2022-11-21T12:53:04.634Z,4
2022-11-21T12:54:07.264Z,4
2022-11-21T12:55:09.908Z,5
2022-11-21T12:56:12.542Z,6
2022-11-21T12:57:15.334Z,6
2022-11-21T12:58:17.931Z,6
2022-11-21T12:59:20.660Z,5
2022-11-21T13:00:23.355Z,4
2022-11-21T13:01:26.108Z,4
2022-11-21T13:02:28.864Z,5
2022-11-21T13:03:31.502Z,5
2022-11-21T13:04:34.358Z,5
2022-11-21T13:05:37.029Z,4
2022-11-21T13:06:39.688Z,4
2022-11-21T13:07:42.491Z,4
2022-11-21T13:08:45.315Z,5
2022-11-21T13:09:48.126Z,5
2022-11-21T13:10:50.710Z,5
2022-11-21T13:11:53.372Z,6
2022-11-21T13:12:56.017Z,4
2022-11-21T13:13:58.694Z,6
2022-11-21T13:15:01.383Z,14
2022-11-21T13:16:04.072Z,16
2022-11-21T13:17:06.788Z,13
2022-11-21T13:18:09.446Z,10
2022-11-21T13:19:12.057Z,10
2022-11-21T13:20:15.312Z,7
2022-11-21T13:21:17.919Z,6
2022-11-21T13:22:20.563Z,4
2022-11-21T13:23:23.215Z,4
2022-11-21T13:24:25.920Z,7
2022-11-21T13:25:28.591Z,5
2022-11-21T13:26:31.233Z,4
2022-11-21T13:27:39.437Z,4
2022-11-21T13:28:42.007Z,5
2022-11-21T13:29:44.689Z,4
2022-11-21T13:30:47.390Z,4
2022-11-21T13:31:50.056Z,5
2022-11-21T13:32:52.716Z,5
2022-11-21T13:33:55.419Z,6
2022-11-21T13:34:58.060Z,5
2022-11-21T13:36:00.703Z,6
2022-11-21T13:37:03.353Z,5
2022-11-21T13:38:05.988Z,4
2022-11-21T13:39:08.837Z,6
2022-11-21T13:40:11.455Z,7
2022-11-21T13:41:14.070Z,7
2022-11-21T13:42:21.069Z,8
2022-11-21T13:43:33.628Z,8
2022-11-21T13:44:37.918Z,6
2022-11-21T13:45:40.544Z,5
2022-11-21T13:46:43.227Z,6
2022-11-21T13:47:56.320Z,6
2022-11-21T13:48:59.969Z,7
2022-11-21T13:50:02.670Z,9
2022-11-21T13:51:05.301Z,9
2022-11-21T13:52:07.984Z,7
2022-11-21T13:53:10.636Z,8
2022-11-21T13:54:13.285Z,7
2022-11-21T13:55:15.959Z,6
2022-11-21T13:56:18.604Z,8
2022-11-21T13:57:21.280Z,7
2022-11-21T13:58:23.915Z,7
2022-11-21T13:59:27.222Z,7
2022-11-21T14:00:30.551Z,7
2022-11-21T14:01:33.312Z,6
2022-11-21T14:02:36.303Z,8
2022-11-21T14:03:39.011Z,8
2022-11-21T14:04:41.667Z,8
2022-11-21T14:05:46.070Z,6
2022-11-21T14:06:50.239Z,6
2022-11-21T14:07:53.100Z,7
2022-11-21T14:08:56.089Z,7
2022-11-21T14:09:58.721Z,14
2022-11-21T14:11:01.353Z,19
2022-11-21T14:12:04.017Z,17
2022-11-21T14:13:06.697Z,13
2022-11-21T14:14:09.385Z,14
2022-11-21T14:15:12.049Z,14
2022-11-21T14:16:14.681Z,13
2022-11-21T14:17:17.523Z,13
2022-11-21T14:18:20.254Z,11
2022-11-21T14:19:22.966Z,17
2022-11-21T14:20:25.648Z,29
2022-11-21T14:21:28.310Z,31
2022-11-21T14:22:38.802Z,27
2022-11-21T14:23:47.983Z,27
2022-11-21T14:24:50.577Z,25
2022-11-21T14:25:53.216Z,22
2022-11-21T14:26:56.057Z,13
2022-11-21T14:27:58.687Z,16
2022-11-21T14:29:01.341Z,8
2022-11-21T14:30:03.846Z,10
2022-11-21T14:31:06.474Z,10
2022-11-21T14:32:10.772Z,8
2022-11-21T14:33:15.253Z,7
2022-11-21T14:34:17.836Z,8
2022-11-21T14:35:20.499Z,7
2022-11-21T14:36:23.172Z,7
2022-11-21T14:37:25.827Z,7
2022-11-21T14:38:28.483Z,6
2022-11-21T14:39:38.874Z,6
2022-11-21T14:40:47.391Z,5
2022-11-21T14:41:49.980Z,6
2022-11-21T14:42:52.595Z,4
2022-11-21T14:43:55.267Z,4
2022-11-21T14:44:57.935Z,4
2022-11-21T14:46:00.536Z,6
2022-11-21T14:47:03.198Z,7
2022-11-21T14:48:05.853Z,6
2022-11-21T14:49:08.496Z,6
2022-11-21T14:50:11.188Z,4
2022-11-21T14:51:13.882Z,4
2022-11-21T14:52:17.488Z,6
2022-11-21T14:53:20.157Z,5
2022-11-21T14:54:22.804Z,4
2022-11-21T14:55:31.409Z,4
2022-11-21T14:56:34.504Z,5
2022-11-21T14:57:37.155Z,7
2022-11-21T14:58:39.815Z,9
2022-11-21T14:59:42.445Z,11
2022-11-21T15:00:59.398Z,14
2022-11-21T15:02:04.011Z,7
2022-11-21T15:03:06.874Z,6
2022-11-21T15:04:09.591Z,7
2022-11-21T15:05:12.245Z,7
2022-11-21T15:06:14.953Z,5
2022-11-21T15:07:17.925Z,4
2022-11-21T15:11:04.341Z,6
2022-11-21T15:12:06.895Z,7
2022-11-21T15:13:09.516Z,8
2022-11-21T15:15:23.942Z,8
2022-11-21T15:16:26.449Z,8
2022-11-21T15:17:29.115Z,10
2022-11-21T15:18:31.749Z,7
2022-11-21T15:19:34.361Z,5
2022-11-21T15:20:37.035Z,6
2022-11-21T15:21:43.182Z,6
2022-11-21T15:22:45.666Z,7
2022-11-21T15:23:48.264Z,7
2022-11-21T15:24:50.876Z,7
2022-11-21T15:26:01.191Z,7
2022-11-21T15:27:04.017Z,7
2022-11-21T15:28:06.655Z,7
2022-11-21T15:29:36.218Z,8
2022-11-21T15:30:41.445Z,10
2022-11-21T15:32:17.020Z,7
2022-11-21T15:33:19.003Z,7
2022-11-21T15:34:35.680Z,7